createdAt,value
2018-03-16T00:00:21.618Z,45.50
2018-03-16T00:01:21.635Z,46.60
2018-03-16T00:02:21.651Z,45.90
2018-03-16T00:03:21.668Z,46.40
2018-03-16T00:04:21.683Z,45.70
2018-03-16T00:05:21.700Z,45.20
2018-03-16T00:06:21.718Z,46.10
2018-03-16T00:07:21.739Z,46.70
2018-03-16T00:08:21.749Z,45.40
2018-03-16T00:09:21.765Z,48.80
2018-03-16T00:10:21.782Z,45.60
2018-03-16T00:11:21.799Z,47.30
2018-03-16T00:12:21.815Z,49.30
2018-03-16T00:13:21.831Z,46.90
2018-03-16T00:14:21.850Z,53.70
2018-03-16T00:15:21.865Z,48.60
2018-03-16T00:16:21.881Z,52.30
2018-03-16T00:17:21.897Z,50.20
2018-03-16T00:18:21.913Z,50.10
2018-03-16T00:19:21.931Z,52.30
2018-03-16T00:20:21.946Z,48.50
2018-03-16T00:21:21.963Z,54.10
2018-03-16T00:22:21.979Z,50.30
2018-03-16T00:23:21.995Z,53.80
2018-03-16T00:24:22.014Z,51.40
2018-03-16T00:25:22.028Z,50.90
2018-03-16T00:26:22.044Z,52.80
2018-03-16T00:27:22.060Z,53.20
2018-03-16T00:28:22.077Z,53.30
2018-03-16T00:29:22.092Z,49.20
2018-03-16T00:30:22.109Z,50.60
2018-03-16T00:31:22.125Z,52.50
2018-03-16T00:32:22.142Z,54.10
2018-03-16T00:33:22.158Z,54.20
2018-03-16T00:34:22.174Z,54.40
2018-03-16T00:35:22.190Z,51.70
2018-03-16T00:36:22.205Z,52.90
2018-03-16T00:37:22.223Z,51.50
2018-03-16T00:38:22.239Z,55.50
2018-03-16T00:39:22.255Z,56.20
2018-03-16T00:40:22.270Z,54.00
2018-03-16T00:41:22.286Z,56.90
2018-03-16T00:42:22.308Z,54.50
2018-03-16T00:43:22.571Z,56.70
2018-03-16T00:44:22.337Z,53.50
2018-03-16T00:45:22.350Z,53.80
2018-03-16T00:46:22.368Z,56.10
2018-03-16T00:47:22.383Z,56.10
2018-03-16T00:48:22.398Z,52.70
2018-03-16T00:49:22.415Z,51.90
2018-03-16T00:50:22.431Z,53.50
2018-03-16T00:51:22.489Z,55.30
2018-03-16T00:52:22.464Z,54.00
2018-03-16T00:53:22.479Z,54.50
2018-03-16T00:54:22.496Z,51.60
2018-03-16T00:55:22.512Z,53.20
2018-03-16T00:56:22.528Z,55.50
2018-03-16T00:57:22.544Z,52.20
2018-03-16T00:58:22.564Z,57.40
2018-03-16T00:59:22.583Z,52.10
2018-03-16T01:00:22.593Z,52.10
2018-03-16T01:01:22.612Z,52.30
2018-03-16T01:02:22.625Z,56.70
2018-03-16T01:03:22.641Z,54.00
2018-03-16T01:04:22.657Z,52.40
2018-03-16T01:05:22.673Z,53.60
2018-03-16T01:06:22.689Z,55.00
2018-03-16T01:07:22.705Z,52.20
2018-03-16T01:08:22.720Z,56.10
2018-03-16T01:09:22.737Z,53.70
2018-03-16T01:10:22.753Z,54.90
2018-03-16T01:11:22.769Z,56.60
2018-03-16T01:12:22.786Z,54.20
2018-03-16T01:13:22.801Z,57.90
2018-03-16T01:14:22.817Z,52.40
2018-03-16T01:15:22.834Z,56.80
2018-03-16T01:16:22.850Z,54.40
2018-03-16T01:17:22.866Z,57.80
2018-03-16T01:18:22.882Z,58.40
2018-03-16T01:19:22.898Z,56.10
2018-03-16T01:20:22.915Z,54.00
2018-03-16T01:21:22.930Z,64.00
2018-03-16T01:22:22.946Z,59.20
2018-03-16T01:23:22.962Z,55.30
2018-03-16T01:24:22.978Z,54.10
2018-03-16T01:25:22.996Z,55.50
2018-03-16T01:26:23.009Z,53.60
2018-03-16T01:27:23.026Z,52.90
2018-03-16T01:28:23.042Z,59.10
2018-03-16T01:29:23.062Z,58.00
2018-03-16T01:30:23.075Z,56.80
2018-03-16T01:31:23.293Z,56.00
2018-03-16T01:32:23.113Z,59.00
2018-03-16T01:33:23.122Z,55.50
2018-03-16T01:34:23.139Z,56.90
2018-03-16T01:35:23.155Z,52.20
2018-03-16T01:36:23.171Z,56.30
2018-03-16T01:37:23.187Z,54.50
2018-03-16T01:38:23.205Z,56.40
2018-03-16T01:39:23.220Z,55.40
2018-03-16T01:40:23.235Z,59.20
2018-03-16T01:41:23.252Z,58.40
2018-03-16T01:42:23.269Z,58.10
2018-03-16T01:43:23.285Z,57.70
2018-03-16T01:44:23.298Z,52.80
2018-03-16T01:45:23.315Z,55.80
2018-03-16T01:46:23.332Z,55.30
2018-03-16T01:47:23.350Z,57.30
2018-03-16T01:48:23.364Z,57.10
2018-03-16T01:49:23.380Z,60.00
2018-03-16T01:50:23.398Z,58.80
2018-03-16T01:51:23.414Z,58.30
2018-03-16T01:52:23.428Z,60.40
2018-03-16T01:53:23.445Z,60.10
2018-03-16T01:54:23.462Z,59.70
2018-03-16T01:55:23.480Z,58.90
2018-03-16T01:56:23.495Z,59.60
2018-03-16T01:57:23.510Z,59.60
2018-03-16T01:58:23.525Z,54.80
2018-03-16T01:59:23.541Z,62.60
2018-03-16T02:00:23.558Z,60.30
2018-03-16T02:01:23.573Z,60.10
2018-03-16T02:02:23.589Z,57.60
2018-03-16T02:03:23.605Z,58.90
2018-03-16T02:04:23.621Z,57.50
2018-03-16T02:05:23.637Z,59.30
2018-03-16T02:06:23.652Z,58.60
2018-03-16T02:07:23.821Z,59.80
2018-03-16T02:08:23.685Z,63.60
2018-03-16T02:09:23.701Z,60.40
2018-03-16T02:10:23.718Z,61.80
2018-03-16T02:11:23.737Z,58.30
2018-03-16T02:12:23.752Z,67.90
2018-03-16T02:13:23.766Z,60.30
2018-03-16T02:14:23.781Z,64.80
2018-03-16T02:15:23.799Z,60.80
2018-03-16T02:16:23.812Z,59.70
2018-03-16T02:17:23.828Z,58.50
2018-03-16T02:18:23.846Z,60.90
2018-03-16T02:19:23.864Z,62.60
2018-03-16T02:20:23.878Z,58.30
2018-03-16T02:21:23.893Z,59.50
2018-03-16T02:22:23.910Z,58.80
2018-03-16T02:23:23.926Z,61.60
2018-03-16T02:24:23.941Z,60.70
2018-03-16T02:25:23.958Z,66.20
2018-03-16T02:26:23.974Z,63.80
2018-03-16T02:27:23.991Z,64.40
2018-03-16T02:28:24.005Z,61.70
2018-03-16T02:29:24.022Z,63.40
2018-03-16T02:30:24.038Z,64.20
2018-03-16T02:31:24.055Z,61.50
2018-03-16T02:32:24.069Z,65.60
2018-03-16T02:33:24.087Z,59.20
2018-03-16T02:34:24.103Z,64.40
2018-03-16T02:35:24.120Z,65.40
2018-03-16T02:36:24.134Z,65.60
2018-03-16T02:37:24.156Z,62.40
2018-03-16T02:38:24.167Z,66.00
2018-03-16T02:39:24.182Z,68.00
2018-03-16T02:40:24.199Z,68.30
2018-03-16T02:41:24.215Z,66.60
2018-03-16T02:42:24.231Z,65.00
2018-03-16T02:43:24.247Z,67.70
2018-03-16T02:44:24.261Z,66.30
2018-03-16T02:45:24.277Z,66.30
2018-03-16T02:46:24.300Z,62.70
2018-03-16T02:47:24.311Z,71.90
2018-03-16T02:48:24.325Z,69.90
2018-03-16T02:49:24.342Z,69.50
2018-03-16T02:50:24.357Z,72.20
2018-03-16T02:51:24.374Z,68.80
2018-03-16T02:52:24.389Z,69.20
2018-03-16T02:53:24.405Z,67.90
2018-03-16T02:54:24.421Z,69.60
2018-03-16T02:55:24.437Z,67.10
2018-03-16T02:56:24.455Z,69.40
2018-03-16T02:57:24.468Z,69.40
2018-03-16T02:58:24.492Z,68.70
2018-03-16T02:59:24.501Z,68.70
2018-03-16T03:00:24.515Z,66.50
2018-03-16T03:01:24.531Z,73.10
2018-03-16T03:02:24.570Z,69.00
2018-03-16T03:03:24.565Z,74.40
2018-03-16T03:04:24.581Z,73.70
2018-03-16T03:05:24.598Z,73.10
2018-03-16T03:06:24.612Z,73.20
2018-03-16T03:07:24.628Z,73.20
2018-03-16T03:08:24.642Z,74.10
2018-03-16T03:09:24.658Z,70.20
2018-03-16T03:10:24.674Z,75.80
2018-03-16T03:11:24.691Z,72.30
2018-03-16T03:12:24.707Z,78.00
2018-03-16T03:13:24.722Z,72.60
2018-03-16T03:14:24.738Z,75.00
2018-03-16T03:15:24.755Z,70.00
2018-03-16T03:16:24.770Z,72.80
2018-03-16T03:17:24.786Z,71.20
2018-03-16T03:18:24.802Z,73.00
2018-03-16T03:19:24.821Z,67.30
2018-03-16T03:20:24.833Z,70.80
2018-03-16T03:21:24.850Z,69.40
2018-03-16T03:22:24.915Z,72.40
2018-03-16T03:23:25.082Z,71.20
2018-03-16T03:24:24.897Z,71.00
2018-03-16T03:25:24.912Z,71.70
2018-03-16T03:26:24.929Z,72.20
2018-03-16T03:27:24.945Z,71.50
2018-03-16T03:28:24.966Z,74.70
2018-03-16T03:29:24.984Z,69.50
2018-03-16T03:30:25.002Z,72.00
2018-03-16T03:31:25.012Z,74.40
2018-03-16T03:32:25.024Z,71.70
2018-03-16T03:33:25.039Z,71.50
2018-03-16T03:34:25.056Z,80.40
2018-03-16T03:35:25.072Z,74.70
2018-03-16T03:36:25.087Z,74.60
2018-03-16T03:37:25.102Z,73.20
2018-03-16T03:38:25.119Z,71.60
2018-03-16T03:39:25.135Z,77.50
2018-03-16T03:40:25.153Z,82.20
2018-03-16T03:41:25.166Z,79.50
2018-03-16T03:42:25.182Z,80.40
2018-03-16T03:43:25.198Z,81.30
2018-03-16T03:44:25.234Z,77.20
2018-03-16T03:45:25.229Z,79.10
2018-03-16T03:46:25.246Z,84.50
2018-03-16T03:47:25.261Z,77.00
2018-03-16T03:48:25.377Z,80.00
2018-03-16T03:49:25.294Z,78.00
2018-03-16T03:50:25.310Z,77.70
2018-03-16T03:51:25.323Z,76.70
2018-03-16T03:52:25.340Z,79.50
2018-03-16T03:53:25.370Z,77.80
2018-03-16T03:54:25.372Z,76.30
2018-03-16T03:55:25.387Z,89.70
2018-03-16T03:56:25.402Z,75.70
2018-03-16T03:57:25.419Z,85.70
2018-03-16T03:58:25.435Z,79.60
2018-03-16T03:59:25.451Z,81.00
2018-03-16T04:00:25.468Z,75.30
2018-03-16T04:01:25.481Z,80.60
2018-03-16T04:02:25.498Z,83.90
2018-03-16T04:03:25.513Z,85.10
2018-03-16T04:04:25.528Z,82.60
2018-03-16T04:05:25.545Z,80.10
2018-03-16T04:06:25.561Z,81.30
2018-03-16T04:07:25.577Z,82.70
2018-03-16T04:08:25.592Z,89.40
2018-03-16T04:09:25.610Z,87.30
2018-03-16T04:10:25.624Z,86.70
2018-03-16T04:11:25.639Z,90.30
2018-03-16T04:12:25.659Z,83.70
2018-03-16T04:13:25.671Z,88.50
2018-03-16T04:14:25.720Z,85.10
2018-03-16T04:15:25.705Z,85.40
2018-03-16T04:16:25.720Z,89.30
2018-03-16T04:17:25.732Z,102.50
2018-03-16T04:18:25.749Z,95.80
2018-03-16T04:19:25.766Z,88.70
2018-03-16T04:20:25.781Z,84.70
2018-03-16T04:21:25.797Z,87.20
2018-03-16T04:22:25.811Z,90.70
2018-03-16T04:23:25.828Z,90.30
2018-03-16T04:24:25.843Z,97.80
2018-03-16T04:25:25.858Z,89.00
2018-03-16T04:26:25.875Z,88.70
2018-03-16T04:27:25.891Z,93.10
2018-03-16T04:28:25.906Z,92.30
2018-03-16T04:29:25.956Z,97.30
2018-03-16T04:30:25.937Z,93.30
2018-03-16T04:31:25.955Z,89.30
2018-03-16T04:32:25.969Z,93.00
2018-03-16T04:33:25.984Z,91.40
2018-03-16T04:34:26.002Z,92.20
2018-03-16T04:35:26.019Z,94.60
2018-03-16T04:36:26.031Z,99.90
2018-03-16T04:37:26.048Z,91.50
2018-03-16T04:38:26.064Z,92.10
2018-03-16T04:39:26.079Z,93.30
2018-03-16T04:40:26.094Z,98.50
2018-03-16T04:41:26.110Z,92.50
2018-03-16T04:42:26.133Z,95.00
2018-03-16T04:43:26.244Z,94.00
2018-03-16T04:44:26.157Z,96.20
2018-03-16T04:45:26.173Z,92.80
2018-03-16T04:46:26.189Z,95.30
2018-03-16T04:47:26.205Z,95.00
2018-03-16T04:48:26.220Z,94.20
2018-03-16T04:49:26.236Z,95.20
2018-03-16T04:50:26.252Z,94.40
2018-03-16T04:51:26.267Z,99.40
2018-03-16T04:52:26.282Z,97.20
2018-03-16T04:53:26.299Z,107.10
2018-03-16T04:54:26.313Z,98.10
2018-03-16T04:55:26.329Z,95.80
2018-03-16T04:56:26.344Z,101.70
2018-03-16T04:57:26.360Z,98.90
2018-03-16T04:58:26.377Z,101.60
2018-03-16T04:59:26.392Z,101.10
2018-03-16T05:00:26.407Z,103.50
2018-03-16T05:01:26.423Z,101.80
2018-03-16T05:02:26.439Z,102.00
2018-03-16T05:03:26.459Z,105.30
2018-03-16T05:04:26.469Z,106.70
2018-03-16T05:05:26.489Z,97.60
2018-03-16T05:06:26.501Z,104.60
2018-03-16T05:07:26.517Z,94.40
2018-03-16T05:08:26.532Z,102.30
2018-03-16T05:09:26.551Z,102.30
2018-03-16T05:10:26.565Z,103.00
2018-03-16T05:11:26.581Z,99.30
2018-03-16T05:12:26.594Z,108.40
2018-03-16T05:13:26.610Z,99.40
2018-03-16T05:14:26.627Z,101.30
2018-03-16T05:15:26.641Z,100.10
2018-03-16T05:16:26.656Z,105.80
2018-03-16T05:17:26.673Z,103.40
2018-03-16T05:18:26.688Z,100.90
2018-03-16T05:19:26.704Z,101.90
2018-03-16T05:20:26.720Z,104.00
2018-03-16T05:21:26.734Z,103.50
2018-03-16T05:22:26.751Z,98.40
2018-03-16T05:23:26.768Z,107.20
2018-03-16T05:24:26.783Z,101.30
2018-03-16T05:25:26.801Z,99.90
2018-03-16T05:26:26.813Z,96.20
2018-03-16T05:27:26.829Z,101.90
2018-03-16T05:28:26.844Z,97.60
2018-03-16T05:29:26.863Z,103.60
2018-03-16T05:30:26.876Z,107.00
2018-03-16T05:31:26.893Z,99.40
2018-03-16T05:32:26.907Z,102.50
2018-03-16T05:33:26.925Z,104.10
2018-03-16T05:34:26.938Z,104.10
2018-03-16T05:35:26.954Z,103.40
2018-03-16T05:36:26.969Z,110.10
2018-03-16T05:37:26.984Z,102.80
2018-03-16T05:38:27.000Z,100.70
2018-03-16T05:39:27.017Z,98.30
2018-03-16T05:40:27.030Z,92.50
2018-03-16T05:41:27.047Z,100.60
2018-03-16T05:42:27.066Z,106.40
2018-03-16T05:43:27.079Z,105.40
2018-03-16T05:44:27.093Z,107.10
2018-03-16T05:45:27.109Z,100.50
2018-03-16T05:46:27.124Z,95.30
2018-03-16T05:47:27.141Z,102.40
2018-03-16T05:48:27.156Z,103.90
2018-03-16T05:49:27.172Z,102.80
2018-03-16T05:50:27.190Z,100.80
2018-03-16T05:51:27.205Z,103.50
2018-03-16T05:52:27.218Z,99.60
2018-03-16T05:53:27.236Z,107.10
2018-03-16T05:54:27.451Z,104.60
2018-03-16T05:55:27.266Z,100.10
2018-03-16T05:56:27.280Z,93.30
2018-03-16T05:57:27.297Z,101.90
2018-03-16T05:58:27.312Z,105.20
2018-03-16T05:59:27.329Z,99.00
2018-03-16T06:00:27.345Z,98.70
2018-03-16T06:01:27.359Z,102.40
2018-03-16T06:02:27.375Z,103.10
2018-03-16T06:03:27.391Z,98.90
2018-03-16T06:04:27.406Z,99.00
2018-03-16T06:05:27.422Z,98.70
2018-03-16T06:06:27.437Z,96.60
2018-03-16T06:07:27.453Z,94.90
2018-03-16T06:08:27.468Z,99.10
2018-03-16T06:09:27.484Z,96.80
2018-03-16T06:10:27.499Z,102.00
2018-03-16T06:11:27.515Z,98.40
2018-03-16T06:12:27.530Z,87.60
2018-03-16T06:13:27.546Z,101.00
2018-03-16T06:14:27.561Z,98.40
2018-03-16T06:15:27.577Z,100.40
2018-03-16T06:16:27.592Z,97.60
2018-03-16T06:17:27.608Z,130.40
2018-03-16T06:18:27.626Z,105.20
2018-03-16T06:19:27.639Z,96.90
2018-03-16T06:20:27.658Z,93.30
2018-03-16T06:21:27.675Z,103.00
2018-03-16T06:22:27.686Z,98.20
2018-03-16T06:23:27.702Z,98.70
2018-03-16T06:24:27.716Z,96.40
2018-03-16T06:25:27.732Z,104.30
2018-03-16T06:26:27.749Z,92.70
2018-03-16T06:27:27.763Z,97.50
2018-03-16T06:28:27.779Z,100.40
2018-03-16T06:29:27.796Z,96.80
2018-03-16T06:30:27.811Z,100.60
2018-03-16T06:31:27.826Z,102.80
2018-03-16T06:32:27.841Z,101.70
2018-03-16T06:33:27.856Z,102.90
2018-03-16T06:34:27.873Z,101.60
2018-03-16T06:35:27.888Z,103.60
2018-03-16T06:36:27.903Z,98.50
2018-03-16T06:37:27.918Z,106.00
2018-03-16T06:38:27.934Z,110.80
2018-03-16T06:39:27.949Z,106.70
2018-03-16T06:40:27.965Z,109.40
2018-03-16T06:41:27.980Z,97.20
2018-03-16T06:42:27.996Z,110.40
2018-03-16T06:43:28.012Z,107.00
2018-03-16T06:44:28.028Z,104.60
2018-03-16T06:45:28.043Z,96.80
2018-03-16T06:46:28.058Z,107.60
2018-03-16T06:47:28.074Z,97.70
2018-03-16T06:48:28.089Z,99.60
2018-03-16T06:49:28.105Z,104.40
2018-03-16T06:50:28.120Z,101.90
2018-03-16T06:51:28.136Z,104.10
2018-03-16T06:52:28.150Z,109.70
2018-03-16T06:53:28.167Z,107.30
2018-03-16T06:54:28.193Z,115.20
2018-03-16T06:55:28.198Z,104.80
2018-03-16T06:56:28.215Z,104.40
2018-03-16T06:57:28.229Z,103.70
2018-03-16T06:58:28.245Z,101.90
2018-03-16T06:59:28.260Z,104.80
2018-03-16T07:00:28.275Z,106.40
2018-03-16T07:01:28.291Z,105.80
2018-03-16T07:02:28.306Z,99.90
2018-03-16T07:03:28.323Z,95.00
2018-03-16T07:04:28.338Z,102.10
2018-03-16T07:05:28.354Z,97.50
2018-03-16T07:06:28.368Z,99.30
2018-03-16T07:07:28.384Z,94.50
2018-03-16T07:08:28.399Z,97.70
2018-03-16T07:09:28.415Z,102.60
2018-03-16T07:10:28.432Z,91.30
2018-03-16T07:11:28.546Z,96.60
2018-03-16T07:12:28.461Z,92.70
2018-03-16T07:13:28.477Z,92.10
2018-03-16T07:14:28.492Z,94.70
2018-03-16T07:15:28.509Z,94.90
2018-03-16T07:16:28.523Z,93.90
2018-03-16T07:17:28.542Z,98.10
2018-03-16T07:18:28.554Z,91.60
2018-03-16T07:19:28.572Z,90.50
2018-03-16T07:20:28.584Z,89.40
2018-03-16T07:21:28.601Z,89.80
2018-03-16T07:22:28.618Z,92.20
2018-03-16T07:23:28.632Z,89.90
2018-03-16T07:24:28.647Z,91.70
2018-03-16T07:25:28.663Z,93.90
2018-03-16T07:26:28.680Z,86.80
2018-03-16T07:27:28.695Z,85.50
2018-03-16T07:28:28.710Z,89.50
2018-03-16T07:29:28.726Z,99.20
2018-03-16T07:30:28.741Z,93.00
2018-03-16T07:31:28.757Z,95.10
2018-03-16T07:32:28.771Z,95.30
2018-03-16T07:33:28.790Z,97.60
2018-03-16T07:34:28.802Z,90.10
2018-03-16T07:35:28.819Z,92.10
2018-03-16T07:36:28.834Z,92.60
2018-03-16T07:37:28.850Z,88.10
2018-03-16T07:38:28.866Z,96.70
2018-03-16T07:39:28.881Z,94.30
2018-03-16T07:40:28.897Z,96.30
2018-03-16T07:41:28.912Z,97.90
2018-03-16T07:42:28.929Z,99.30
2018-03-16T07:43:28.946Z,97.00
2018-03-16T07:44:28.958Z,100.60
2018-03-16T07:45:28.974Z,100.40
2018-03-16T07:46:28.990Z,102.40
2018-03-16T07:47:29.004Z,102.90
2018-03-16T07:48:29.024Z,95.20
2018-03-16T07:49:29.035Z,97.10
2018-03-16T07:50:29.055Z,98.20
2018-03-16T07:51:29.067Z,89.40
2018-03-16T07:52:29.082Z,89.20
2018-03-16T07:53:29.097Z,86.10
2018-03-16T07:54:29.114Z,91.80
2018-03-16T07:55:29.130Z,90.90
2018-03-16T07:56:29.144Z,88.60
2018-03-16T07:57:29.159Z,83.70
2018-03-16T07:58:29.174Z,83.20
2018-03-16T07:59:29.192Z,83.90
2018-03-16T08:00:29.206Z,78.80
2018-03-16T08:01:29.222Z,76.30
2018-03-16T08:02:29.238Z,80.90
2018-03-16T08:03:29.255Z,81.00
2018-03-16T08:04:29.269Z,80.60
2018-03-16T08:05:29.284Z,82.00
2018-03-16T08:06:29.301Z,82.30
2018-03-16T08:07:29.316Z,82.70
2018-03-16T08:08:29.332Z,82.50
2018-03-16T08:09:29.346Z,91.00
2018-03-16T08:10:29.362Z,88.90
2018-03-16T08:11:29.377Z,91.20
2018-03-16T08:12:29.394Z,86.60
2018-03-16T08:13:29.410Z,95.90
2018-03-16T08:14:29.424Z,90.40
2018-03-16T08:15:29.440Z,86.50
2018-03-16T08:16:29.456Z,85.80
2018-03-16T08:17:29.471Z,82.40
2018-03-16T08:18:29.486Z,87.20
2018-03-16T08:19:29.503Z,85.50
2018-03-16T08:20:29.518Z,88.50
2018-03-16T08:21:29.532Z,87.80
2018-03-16T08:22:29.569Z,75.40
2018-03-16T08:23:29.667Z,73.20
2018-03-16T08:24:29.580Z,71.20
2018-03-16T08:25:29.595Z,75.80
2018-03-16T08:26:29.610Z,72.70
2018-03-16T08:27:29.625Z,74.70
2018-03-16T08:28:29.641Z,75.50
2018-03-16T08:29:29.656Z,69.30
2018-03-16T08:30:29.673Z,70.40
2018-03-16T08:31:29.687Z,73.50
2018-03-16T08:32:29.705Z,67.00
2018-03-16T08:33:29.718Z,66.00
2018-03-16T08:34:29.734Z,68.30
2018-03-16T08:35:29.749Z,65.70
2018-03-16T08:36:29.764Z,60.00
2018-03-16T08:37:29.780Z,63.90
2018-03-16T08:38:29.799Z,56.30
2018-03-16T08:39:29.811Z,60.90
2018-03-16T08:40:29.828Z,60.50
2018-03-16T08:41:29.842Z,62.60
2018-03-16T08:42:29.857Z,64.80
2018-03-16T08:43:29.872Z,62.90
2018-03-16T08:44:29.888Z,63.90
2018-03-16T08:45:29.903Z,62.60
2018-03-16T08:46:29.920Z,59.70
2018-03-16T08:47:29.934Z,60.90
2018-03-16T08:48:29.950Z,65.80
2018-03-16T08:49:29.964Z,65.50
2018-03-16T08:50:29.979Z,62.90
2018-03-16T08:51:29.996Z,67.20
2018-03-16T08:52:30.012Z,67.00
2018-03-16T08:53:30.026Z,68.70
2018-03-16T08:54:30.049Z,71.30
2018-03-16T08:55:30.068Z,70.50
2018-03-16T08:56:30.076Z,69.30
2018-03-16T08:57:30.087Z,70.10
2018-03-16T08:58:30.104Z,69.40
2018-03-16T08:59:30.119Z,76.80
2018-03-16T09:00:30.134Z,70.10
2018-03-16T09:01:30.149Z,71.40
2018-03-16T09:02:30.165Z,65.00
2018-03-16T09:03:30.220Z,65.00
2018-03-16T09:04:30.195Z,65.90
2018-03-16T09:05:30.211Z,64.50
2018-03-16T09:06:30.227Z,67.30
2018-03-16T09:07:30.244Z,63.70
2018-03-16T09:08:30.257Z,71.20
2018-03-16T09:09:30.274Z,65.10
2018-03-16T09:10:30.289Z,64.90
2018-03-16T09:11:30.304Z,65.00
2018-03-16T09:12:30.351Z,62.60
2018-03-16T09:13:30.337Z,60.30
2018-03-16T09:14:30.451Z,59.20
2018-03-16T09:15:30.366Z,63.00
2018-03-16T09:16:30.379Z,65.30
2018-03-16T09:17:30.397Z,58.80
2018-03-16T09:18:30.412Z,56.60
2018-03-16T09:19:30.428Z,63.30
2018-03-16T09:20:30.448Z,57.30
2018-03-16T09:21:30.459Z,61.80
2018-03-16T09:22:30.474Z,63.40
2018-03-16T09:23:30.491Z,64.50
2018-03-16T09:24:30.505Z,66.30
2018-03-16T09:25:30.540Z,66.70
2018-03-16T09:26:30.535Z,66.00
2018-03-16T09:27:30.558Z,69.20
2018-03-16T09:28:30.566Z,68.90
2018-03-16T09:29:30.582Z,71.80
2018-03-16T09:30:30.597Z,64.90
2018-03-16T09:31:30.613Z,62.30
2018-03-16T09:32:30.628Z,67.50
2018-03-16T09:33:30.644Z,59.20
2018-03-16T09:34:30.659Z,59.40
2018-03-16T09:35:30.676Z,57.20
2018-03-16T09:36:30.691Z,53.20
2018-03-16T09:37:30.706Z,56.80
2018-03-16T09:38:30.721Z,53.90
2018-03-16T09:39:30.740Z,53.00
2018-03-16T09:40:30.752Z,50.60
2018-03-16T09:41:30.768Z,53.50
2018-03-16T09:42:30.782Z,52.00
2018-03-16T09:43:30.800Z,47.90
2018-03-16T09:44:30.814Z,45.60
2018-03-16T09:45:30.828Z,48.30
2018-03-16T09:46:30.844Z,47.70
2018-03-16T09:47:30.863Z,46.90
2018-03-16T09:48:30.881Z,46.20
2018-03-16T09:49:30.891Z,41.60
2018-03-16T09:50:30.906Z,45.00
2018-03-16T09:51:30.924Z,43.80
2018-03-16T09:52:30.936Z,46.40
2018-03-16T09:53:30.952Z,41.60
2018-03-16T09:54:30.967Z,46.30
2018-03-16T09:55:30.983Z,48.70
2018-03-16T09:56:30.997Z,48.20
2018-03-16T09:57:31.014Z,49.10
2018-03-16T09:58:31.032Z,54.20
2018-03-16T09:59:31.045Z,53.40
2018-03-16T10:00:31.059Z,47.60
2018-03-16T10:01:31.075Z,48.00
2018-03-16T10:02:31.095Z,50.00
2018-03-16T10:03:31.105Z,46.70
2018-03-16T10:04:31.120Z,46.40
2018-03-16T10:05:31.136Z,47.50
2018-03-16T10:06:31.151Z,45.10
2018-03-16T10:07:31.167Z,47.40
2018-03-16T10:08:31.184Z,47.20
2018-03-16T10:09:31.197Z,44.20
2018-03-16T10:10:31.213Z,47.00
2018-03-16T10:11:31.229Z,40.50
2018-03-16T10:12:31.245Z,39.90
2018-03-16T10:13:31.258Z,39.60
2018-03-16T10:14:31.274Z,40.20
2018-03-16T10:15:31.290Z,43.50
2018-03-16T10:16:31.302Z,40.40
2018-03-16T10:17:31.318Z,41.50
2018-03-16T10:18:31.334Z,39.20
2018-03-16T10:19:31.349Z,40.10
2018-03-16T10:20:31.365Z,40.60
2018-03-16T10:21:31.378Z,43.90
2018-03-16T10:22:31.395Z,37.90
2018-03-16T10:23:31.408Z,37.40
2018-03-16T10:24:31.424Z,35.20
2018-03-16T10:25:31.439Z,35.70
2018-03-16T10:26:31.455Z,34.90
2018-03-16T10:27:31.470Z,35.60
2018-03-16T10:28:31.486Z,36.10
2018-03-16T10:29:31.500Z,35.50
2018-03-16T10:30:31.515Z,38.60
2018-03-16T10:31:31.530Z,33.30
2018-03-16T10:32:31.547Z,35.10
2018-03-16T10:33:31.559Z,35.40
2018-03-16T10:34:31.575Z,37.40
2018-03-16T10:35:31.592Z,38.50
2018-03-16T10:36:31.605Z,36.20
2018-03-16T10:37:31.620Z,34.50
2018-03-16T10:38:31.636Z,35.00
2018-03-16T10:39:31.651Z,38.30
2018-03-16T10:40:31.666Z,34.50
2018-03-16T10:41:31.681Z,36.30
2018-03-16T10:42:31.697Z,39.70
2018-03-16T10:43:31.712Z,32.80
2018-03-16T10:44:31.726Z,36.50
2018-03-16T10:45:31.742Z,35.80
2018-03-16T10:46:31.758Z,35.50
2018-03-16T10:47:31.772Z,37.20
2018-03-16T10:48:31.787Z,37.10
2018-03-16T10:49:31.808Z,35.30
2018-03-16T10:50:31.817Z,34.90
2018-03-16T10:51:31.833Z,37.80
2018-03-16T10:52:31.847Z,35.90
2018-03-16T10:53:31.864Z,34.00
2018-03-16T10:54:31.878Z,36.00
2018-03-16T10:55:31.898Z,34.10
2018-03-16T10:56:31.908Z,33.30
2018-03-16T10:57:31.924Z,34.20
2018-03-16T10:58:31.941Z,32.40
2018-03-16T10:59:31.955Z,36.50
2018-03-16T11:00:31.969Z,34.70
2018-03-16T11:01:31.985Z,36.50
2018-03-16T11:02:32.001Z,37.40
2018-03-16T11:03:32.016Z,35.30
2018-03-16T11:04:32.029Z,35.40
2018-03-16T11:05:32.046Z,34.90
2018-03-16T11:06:32.061Z,33.20
2018-03-16T11:07:32.076Z,30.50
2018-03-16T11:08:32.091Z,30.90
2018-03-16T11:09:32.106Z,33.20
2018-03-16T11:10:32.124Z,31.70
2018-03-16T11:11:32.138Z,29.80
2018-03-16T11:12:32.153Z,29.30
2018-03-16T11:13:32.167Z,33.30
2018-03-16T11:14:32.184Z,32.60
2018-03-16T11:15:32.200Z,31.60
2018-03-16T11:16:32.217Z,32.30
2018-03-16T11:17:32.233Z,29.20
2018-03-16T11:18:32.245Z,29.70
2018-03-16T11:19:32.262Z,30.10
2018-03-16T11:20:32.275Z,30.30
2018-03-16T11:21:32.291Z,30.00
2018-03-16T11:22:32.306Z,28.70
2018-03-16T11:23:32.324Z,29.20
2018-03-16T11:24:32.338Z,32.70
2018-03-16T11:25:32.352Z,28.30
2018-03-16T11:26:32.368Z,27.40
2018-03-16T11:27:32.386Z,26.10
2018-03-16T11:28:32.402Z,29.30
2018-03-16T11:29:32.418Z,25.60
2018-03-16T11:30:32.434Z,26.10
2018-03-16T11:31:32.505Z,27.30
2018-03-16T11:32:32.461Z,26.10
2018-03-16T11:33:32.506Z,26.90
2018-03-16T11:34:32.840Z,27.10
2018-03-16T11:35:32.508Z,29.00
2018-03-16T11:36:32.643Z,27.10
2018-03-16T11:37:32.560Z,27.00
2018-03-16T11:38:32.554Z,24.80
2018-03-16T11:39:32.573Z,25.40
2018-03-16T11:40:32.584Z,24.70
2018-03-16T11:41:32.606Z,27.50
2018-03-16T11:42:32.616Z,23.90
2018-03-16T11:43:32.629Z,26.20
2018-03-16T11:44:32.655Z,27.10
2018-03-16T11:45:32.660Z,24.40
2018-03-16T11:46:32.673Z,24.00
2018-03-16T11:47:32.790Z,23.60
2018-03-16T11:48:32.710Z,24.60
2018-03-16T11:49:32.731Z,23.40
2018-03-16T11:50:32.735Z,26.40
2018-03-16T11:51:32.788Z,24.20
2018-03-16T11:52:32.765Z,29.00
2018-03-16T11:53:32.830Z,25.80
2018-03-16T11:54:32.812Z,24.20
2018-03-16T11:55:32.892Z,24.40
2018-03-16T11:56:32.834Z,24.60
2018-03-16T11:57:32.845Z,26.60
2018-03-16T11:58:32.909Z,24.70
2018-03-16T11:59:32.874Z,24.60
2018-03-16T12:00:32.909Z,22.80
2018-03-16T12:01:32.905Z,25.40
2018-03-16T12:02:32.919Z,23.30
2018-03-16T12:03:32.935Z,23.70
2018-03-16T12:04:32.954Z,23.40
2018-03-16T12:05:32.981Z,23.20
2018-03-16T12:06:32.990Z,23.70
2018-03-16T12:07:33.021Z,23.90
2018-03-16T12:08:33.086Z,23.90
2018-03-16T12:09:33.027Z,24.40
2018-03-16T12:10:33.067Z,22.20
2018-03-16T12:11:33.126Z,23.90
2018-03-16T12:12:33.074Z,25.10
2018-03-16T12:13:33.097Z,25.00
2018-03-16T12:14:33.108Z,24.10
2018-03-16T12:15:33.151Z,22.40
2018-03-16T12:16:33.184Z,22.50
2018-03-16T12:17:33.165Z,22.20
2018-03-16T12:18:33.203Z,23.20
2018-03-16T12:19:33.252Z,22.20
2018-03-16T12:20:33.212Z,22.70
2018-03-16T12:21:33.213Z,24.50
2018-03-16T12:22:33.224Z,23.10
2018-03-16T12:23:33.241Z,24.10
2018-03-16T12:24:33.316Z,24.10
2018-03-16T12:25:33.422Z,22.80
2018-03-16T12:26:33.353Z,22.40
2018-03-16T12:27:33.358Z,22.20
2018-03-16T12:28:49.476Z,22.10
2018-03-16T12:29:33.333Z,22.60
2018-03-16T12:30:33.457Z,24.90
2018-03-16T12:31:33.370Z,24.20
2018-03-16T12:32:33.427Z,22.80
2018-03-16T12:33:33.459Z,24.80
2018-03-16T12:34:33.435Z,24.20
2018-03-16T12:35:33.502Z,24.50
2018-03-16T12:36:33.437Z,22.80
2018-03-16T12:37:33.532Z,25.00
2018-03-16T12:38:33.479Z,24.70
2018-03-16T12:39:33.490Z,23.50
2018-03-16T12:40:33.519Z,24.40
2018-03-16T12:41:33.520Z,23.80
2018-03-16T12:42:33.534Z,24.10
2018-03-16T12:43:33.550Z,25.20
2018-03-16T12:44:33.568Z,25.20
2018-03-16T12:45:33.584Z,24.40
2018-03-16T12:46:33.589Z,25.30
2018-03-16T12:47:33.606Z,26.00
2018-03-16T12:48:33.631Z,24.40
2018-03-16T12:49:33.686Z,24.50